Time;durP1;ratioP1;P1;durP2;ratioP2;P2;SDS_P1;SDS_P2;PMS_P1;PMS_P2;Temp;Humidity;BMP_temperature;BMP_pressure;BME280_temperature;BME280_humidity;BME280_pressure;Samples;Min_cycle;Max_cycle;Signal;HPM_P1;HPM_P2
2023/06/10 00:00:26;;;;;;;8.75;5.30;;;14.50;99.90;;;;;;5130148;27;20043;-61
2023/06/10 00:02:53;;;;;;;6.55;4.97;;;14.40;99.90;;;;;;5125452;27;20031;-62
2023/06/10 00:05:21;;;;;;;7.65;4.82;;;14.40;99.90;;;;;;5134655;27;20067;-62
2023/06/10 00:07:49;;;;;;;6.68;5.10;;;14.20;99.90;;;;;;5130427;27;20047;-59
2023/06/10 00:10:16;;;;;;;7.22;4.95;;;14.20;99.90;;;;;;5134225;27;20381;-60
2023/06/10 00:12:43;;;;;;;8.00;4.32;;;14.20;99.90;;;;;;5129032;27;20043;-61
2023/06/10 00:15:10;;;;;;;;;;;14.20;99.90;;;;;;5129736;27;20128;-60
2023/06/10 00:17:38;;;;;;;5.95;4.43;;;14.20;99.90;;;;;;5131141;27;19919;-61
2023/06/10 00:20:13;;;;;;;7.80;5.20;;;14.20;99.90;;;;;;5125914;27;20046;-60
2023/06/10 00:22:41;;;;;;;6.18;4.68;;;14.20;99.90;;;;;;5124679;27;20035;-62
2023/06/10 00:25:10;;;;;;;6.85;4.47;;;14.20;99.90;;;;;;5134050;27;20031;-62
2023/06/10 00:27:37;;;;;;;7.30;4.72;;;14.20;99.90;;;;;;5126370;27;20114;-62
2023/06/10 00:30:06;;;;;;;6.60;5.25;;;14.20;99.90;;;;;;5137331;27;20509;-61
2023/06/10 00:32:34;;;;;;;8.23;5.22;;;14.10;99.90;;;;;;5111717;27;20039;-62
2023/06/10 00:35:05;;;;;;;8.85;6.03;;;13.90;99.90;;;;;;5115321;27;20452;-62
2023/06/10 00:37:35;;;;;;;7.55;6.07;;;13.70;99.90;;;;;;5114034;27;20043;-61
2023/06/10 00:40:04;;;;;;;7.60;5.00;;;13.50;99.90;;;;;;5133403;27;20038;-62
2023/06/10 00:42:31;;;;;;;7.75;4.90;;;13.50;99.90;;;;;;5127071;27;20032;-61
2023/06/10 00:44:58;;;;;;;7.28;5.07;;;13.50;99.90;;;;;;5132705;27;20379;-62
2023/06/10 00:47:26;;;;;;;6.70;4.80;;;13.50;99.90;;;;;;5129225;27;20396;-62
2023/06/10 00:49:54;;;;;;;7.50;4.90;;;13.60;99.90;;;;;;5097400;27;20135;-60
2023/06/10 00:52:27;;;;;;;7.00;4.75;;;13.60;99.90;;;;;;5132910;27;20380;-61
2023/06/10 00:54:54;;;;;;;7.93;5.22;;;13.70;99.90;;;;;;5108743;27;20050;-62
2023/06/10 00:57:21;;;;;;;;;;;13.80;99.90;;;;;;5133776;27;20515;-60
2023/06/10 00:59:49;;;;;;;5.95;4.35;;;13.80;99.90;;;;;;5125527;27;19919;-62
2023/06/10 01:02:16;;;;;;;7.65;5.22;;;13.80;99.90;;;;;;5105981;28;20096;-60
2023/06/10 01:04:43;;;;;;;8.30;4.47;;;13.80;99.90;;;;;;5112168;27;20083;-61
2023/06/10 01:07:41;;;;;;;;;;;13.90;99.90;;;;;;5115113;27;20043;-61
2023/06/10 01:10:16;;;;;;;6.38;4.57;;;13.90;99.90;;;;;;5074881;27;20359;-62
2023/06/10 01:12:56;;;;;;;6.25;4.45;;;13.80;99.90;;;;;;5114422;27;20046;-60
2023/06/10 01:15:23;;;;;;;8.13;5.03;;;13.70;99.90;;;;;;5110383;27;20158;-61
2023/06/10 01:18:01;;;;;;;7.85;5.55;;;13.70;99.90;;;;;;5107805;27;20143;-61
2023/06/10 01:20:32;;;;;;;7.18;5.05;;;13.60;99.90;;;;;;5129785;27;20035;-61
2023/06/10 01:22:59;;;;;;;6.95;4.78;;;13.60;99.90;;;;;;5124426;27;20550;-61
2023/06/10 01:25:28;;;;;;;9.20;5.07;;;13.60;99.90;;;;;;5108734;27;20495;-61
2023/06/10 01:28:00;;;;;;;6.63;4.70;;;13.50;99.90;;;;;;5132640;27;20080;-61
2023/06/10 01:30:33;;;;;;;10.70;5.45;;;13.50;99.90;;;;;;5105518;27;20130;-61
2023/06/10 01:33:01;;;;;;;7.13;4.82;;;13.30;99.90;;;;;;5112229;27;20035;-60
2023/06/10 01:35:30;;;;;;;6.88;5.05;;;13.40;99.90;;;;;;5112085;27;20082;-62
2023/06/10 01:37:59;;;;;;;9.55;6.13;;;13.40;99.90;;;;;;5121400;27;20475;-61
2023/06/10 01:40:26;;;;;;;11.07;5.53;;;13.30;99.90;;;;;;5102977;28;20067;-61
2023/06/10 01:42:53;;;;;;;9.32;5.47;;;13.10;99.90;;;;;;5112023;27;20119;-61
2023/06/10 01:45:20;;;;;;;10.00;4.95;;;13.00;99.90;;;;;;5110770;27;20053;-60
2023/06/10 01:47:47;;;;;;;6.22;5.45;;;12.90;99.90;;;;;;5104581;27;20414;-61
2023/06/10 01:50:16;;;;;;;7.38;4.95;;;13.00;99.90;;;;;;5113773;27;20123;-61
2023/06/10 01:52:43;;;;;;;7.82;4.60;;;13.00;99.90;;;;;;5100665;28;20053;-62
2023/06/10 01:55:09;;;;;;;5.70;4.82;;;13.00;99.90;;;;;;5133998;27;20046;-61
2023/06/10 01:57:39;;;;;;;8.63;5.38;;;13.00;99.90;;;;;;5110813;28;20050;-62
2023/06/10 02:00:07;;;;;;;7.20;5.13;;;13.00;99.90;;;;;;5107509;28;20039;-62
2023/06/10 02:02:40;;;;;;;6.93;5.07;;;13.10;99.90;;;;;;5111603;27;20458;-61
2023/06/10 02:05:07;;;;;;;9.15;5.57;;;13.00;99.90;;;;;;5112947;27;20452;-61
2023/06/10 02:07:35;;;;;;;9.80;4.93;;;13.10;99.90;;;;;;5115871;27;20047;-61
2023/06/10 02:10:01;;;;;;;8.65;5.47;;;13.10;99.90;;;;;;5111874;28;20131;-59
2023/06/10 02:12:28;;;;;;;7.78;5.22;;;13.10;99.90;;;;;;5113341;27;20054;-62
2023/06/10 02:14:55;;;;;;;8.18;5.20;;;13.00;99.90;;;;;;5105083;28;20043;-62
2023/06/10 02:17:23;;;;;;;5.90;4.93;;;13.00;99.90;;;;;;5112327;27;20055;-61
2023/06/10 02:19:52;;;;;;;8.05;5.10;;;13.00;99.90;;;;;;5113009;28;20043;-61
2023/06/10 02:22:22;;;;;;;6.40;4.80;;;13.00;99.90;;;;;;5111328;27;20045;-61
2023/06/10 02:24:49;;;;;;;7.60;4.80;;;13.10;99.90;;;;;;5094760;28;20040;-61
2023/06/10 02:27:16;;;;;;;6.57;5.35;;;13.00;99.90;;;;;;5120691;27;20069;-61
2023/06/10 02:29:43;;;;;;;8.18;5.65;;;13.00;99.90;;;;;;5129344;28;20076;-61
2023/06/10 02:32:11;;;;;;;9.20;5.60;;;12.90;99.90;;;;;;5111753;27;20023;-60
2023/06/10 02:34:42;;;;;;;7.55;5.57;;;12.80;99.90;;;;;;5100919;27;20388;-62
2023/06/10 02:37:09;;;;;;;7.68;5.63;;;12.80;99.90;;;;;;5107775;28;20085;-61
2023/06/10 02:39:36;;;;;;;8.25;5.53;;;12.60;99.90;;;;;;5094051;28;20052;-61
2023/06/10 02:42:07;;;;;;;8.35;5.47;;;12.60;99.90;;;;;;5102166;28;20067;-61
2023/06/10 02:44:34;;;;;;;;;;;12.60;99.90;;;;;;5105496;28;20039;-62
2023/06/10 02:47:02;;;;;;;6.88;4.95;;;12.70;99.90;;;;;;5108654;28;19972;-61
2023/06/10 02:49:30;;;;;;;8.35;5.32;;;12.60;99.90;;;;;;5078571;28;20507;-62
2023/06/10 02:51:56;;;;;;;7.60;5.13;;;12.60;99.90;;;;;;5095711;27;20384;-62
2023/06/10 02:54:24;;;;;;;7.10;5.13;;;12.60;99.90;;;;;;5103985;28;20039;-61
2023/06/10 02:56:55;;;;;;;8.80;6.68;;;12.60;99.90;;;;;;5107568;27;20043;-61
2023/06/10 02:59:26;;;;;;;8.63;6.80;;;12.60;99.90;;;;;;5097490;28;20055;-61
2023/06/10 03:01:53;;;;;;;6.40;4.90;;;12.60;99.90;;;;;;5105586;27;20071;-61
2023/06/10 03:04:23;;;;;;;8.30;5.25;;;12.60;99.90;;;;;;5102910;28;20427;-61
2023/06/10 03:07:00;;;;;;;7.85;5.40;;;12.60;99.90;;;;;;5102413;28;20040;-63
2023/06/10 03:09:30;;;;;;;5.78;5.03;;;12.50;99.90;;;;;;5108394;27;20039;-61
2023/06/10 03:12:00;;;;;;;7.07;5.28;;;12.50;99.90;;;;;;5105666;28;20055;-63
2023/06/10 03:14:31;;;;;;;6.13;5.07;;;12.50;99.90;;;;;;5096356;28;20573;-63
2023/06/10 03:16:59;;;;;;;6.53;4.80;;;12.60;99.90;;;;;;5100368;28;20043;-62
2023/06/10 03:19:26;;;;;;;8.13;5.43;;;12.50;99.90;;;;;;5108791;27;20043;-63
2023/06/10 03:22:07;;;;;;;6.78;5.25;;;12.80;99.90;;;;;;5101895;27;20063;-62
2023/06/10 03:24:39;;;;;;;10.32;5.63;;;12.50;99.90;;;;;;5107783;27;20044;-63
2023/06/10 03:27:10;;;;;;;6.07;5.00;;;12.50;99.90;;;;;;5100391;27;20046;-63
2023/06/10 03:29:39;;;;;;;8.43;6.30;;;12.50;99.90;;;;;;5094505;27;20047;-62
2023/06/10 03:32:07;;;;;;;9.95;5.80;;;12.50;99.90;;;;;;5100208;27;20031;-63
2023/06/10 03:34:35;;;;;;;7.60;5.18;;;12.40;99.90;;;;;;5115890;27;20464;-63
2023/06/10 03:37:02;;;;;;;;;;;12.40;99.90;;;;;;5107751;27;20122;-60
2023/06/10 03:39:30;;;;;;;9.57;5.68;;;12.40;99.90;;;;;;5104393;28;20342;-62
2023/06/10 03:41:58;;;;;;;9.32;5.82;;;12.40;99.90;;;;;;5106899;27;20046;-63
2023/06/10 03:44:27;;;;;;;8.98;5.57;;;12.40;99.90;;;;;;5112936;27;20126;-63
2023/06/10 03:46:56;;;;;;;12.00;5.53;;;12.40;99.90;;;;;;5091160;27;20035;-63
2023/06/10 03:49:25;;;;;;;6.88;5.63;;;12.50;99.90;;;;;;5110103;27;20047;-62
2023/06/10 03:51:53;;;;;;;6.70;5.13;;;12.50;99.90;;;;;;5107562;27;20075;-62
2023/06/10 03:54:20;;;;;;;6.57;5.00;;;12.50;99.90;;;;;;5107012;28;20050;-63
2023/06/10 03:56:48;;;;;;;8.48;6.05;;;12.50;99.90;;;;;;5104432;27;20052;-62
2023/06/10 03:59:14;;;;;;;7.15;5.13;;;12.60;99.90;;;;;;5101660;28;20046;-63
2023/06/10 04:01:43;;;;;;;6.57;5.25;;;12.60;99.90;;;;;;5103991;27;20043;-63
2023/06/10 04:04:11;;;;;;;9.65;6.30;;;12.50;99.90;;;;;;5095290;28;20071;-62
2023/06/10 04:06:38;;;;;;;9.77;6.78;;;12.60;99.90;;;;;;5095170;28;20134;-63
2023/06/10 04:09:05;;;;;;;11.10;7.88;;;12.50;99.90;;;;;;5124675;27;20042;-63
2023/06/10 04:11:32;;;;;;;9.05;6.90;;;12.50;99.90;;;;;;5113162;27;20047;-63
2023/06/10 04:13:59;;;;;;;12.48;7.82;;;12.60;99.90;;;;;;5116966;27;20043;-63
2023/06/10 04:16:26;;;;;;;11.15;8.57;;;12.60;99.90;;;;;;5100859;28;20052;-63
2023/06/10 04:18:53;;;;;;;11.15;7.10;;;12.60;99.90;;;;;;5102591;27;20473;-62
2023/06/10 04:21:20;;;;;;;9.30;6.40;;;12.70;99.90;;;;;;5100450;28;20040;-63
2023/06/10 04:23:49;;;;;;;6.82;5.40;;;12.70;99.90;;;;;;5100641;28;20040;-62
2023/06/10 04:26:16;;;;;;;;;;;12.80;99.90;;;;;;5103221;27;20043;-61
2023/06/10 04:28:46;;;;;;;9.57;6.35;;;12.80;99.90;;;;;;5108879;28;20383;-63
2023/06/10 04:31:13;;;;;;;9.18;6.13;;;12.80;99.90;;;;;;5120593;27;20047;-63
2023/06/10 04:33:41;;;;;;;8.70;6.78;;;12.90;99.90;;;;;;5115013;27;20043;-62
2023/06/10 04:36:07;;;;;;;8.82;6.95;;;12.90;99.90;;;;;;5106661;27;20503;-63
2023/06/10 04:38:35;;;;;;;11.50;7.60;;;12.90;99.90;;;;;;5101904;27;20479;-60
2023/06/10 04:41:02;;;;;;;10.90;7.47;;;12.90;99.90;;;;;;5114389;27;20959;-63
2023/06/10 04:43:32;;;;;;;12.02;8.50;;;13.00;99.90;;;;;;5103103;28;20044;-63
2023/06/10 04:46:00;;;;;;;11.55;8.55;;;13.00;99.90;;;;;;5094458;27;20040;-62
2023/06/10 04:48:28;;;;;;;9.77;7.80;;;13.00;99.90;;;;;;5100103;27;20094;-63
2023/06/10 04:50:56;;;;;;;11.70;8.68;;;13.00;99.90;;;;;;5118482;27;20047;-63
2023/06/10 04:53:23;;;;;;;13.18;9.07;;;13.30;99.90;;;;;;5100145;28;20050;-63
2023/06/10 04:55:49;;;;;;;13.50;9.75;;;13.20;99.90;;;;;;5083198;27;20043;-63
2023/06/10 04:58:16;;;;;;;12.35;8.90;;;13.20;99.90;;;;;;5118591;27;20043;-62
2023/06/10 05:00:43;;;;;;;14.88;8.73;;;13.30;99.90;;;;;;5100724;27;20047;-63
2023/06/10 05:03:10;;;;;;;11.38;8.20;;;13.40;99.90;;;;;;5124435;27;20480;-62
2023/06/10 05:05:37;;;;;;;13.43;8.23;;;13.40;99.90;;;;;;5126719;27;20054;-63
2023/06/10 05:08:04;;;;;;;14.25;8.85;;;13.50;99.90;;;;;;5124059;27;20035;-62
2023/06/10 05:10:34;;;;;;;12.52;9.02;;;13.60;99.90;;;;;;5117518;27;20043;-63
2023/06/10 05:13:02;;;;;;;;;;;13.60;99.90;;;;;;5116786;27;20050;-62
2023/06/10 05:15:30;;;;;;;12.20;8.05;;;13.70;99.90;;;;;;5119142;27;19919;-63
2023/06/10 05:18:02;;;;;;;11.70;8.25;;;13.60;99.90;;;;;;5129321;27;20488;-63
2023/06/10 05:20:29;;;;;;;11.52;7.88;;;13.70;99.90;;;;;;5111129;27;20526;-62
2023/06/10 05:22:56;;;;;;;11.32;7.47;;;13.70;99.90;;;;;;5120944;27;20035;-63
2023/06/10 05:25:23;;;;;;;12.25;7.75;;;13.90;99.90;;;;;;5124589;27;20039;-63
2023/06/10 05:27:49;;;;;;;11.30;7.65;;;14.00;99.90;;;;;;5111283;27;20039;-63
2023/06/10 05:30:18;;;;;;;9.40;7.53;;;14.30;99.90;;;;;;5114872;27;20372;-62
2023/06/10 05:32:45;;;;;;;14.40;7.95;;;14.70;99.90;;;;;;5123650;27;20061;-63
2023/06/10 05:35:12;;;;;;;11.45;7.97;;;14.50;99.90;;;;;;5128735;27;20036;-63
2023/06/10 05:37:38;;;;;;;15.35;7.57;;;14.40;99.90;;;;;;5122478;27;20383;-63
2023/06/10 05:40:06;;;;;;;10.48;7.22;;;14.40;99.90;;;;;;5114593;27;20415;-62
2023/06/10 05:42:33;;;;;;;10.43;7.70;;;14.40;99.90;;;;;;5116068;27;20059;-63
2023/06/10 05:45:00;;;;;;;11.70;8.38;;;14.40;99.90;;;;;;5101506;27;20071;-63
2023/06/10 05:47:26;;;;;;;9.48;7.57;;;14.40;99.90;;;;;;5117309;27;20031;-63
2023/06/10 05:49:53;;;;;;;19.60;7.93;;;14.50;99.90;;;;;;5107340;27;20051;-63
2023/06/10 05:52:20;;;;;;;13.50;7.80;;;14.60;99.90;;;;;;5113845;27;20376;-63
2023/06/10 05:54:47;;;;;;;13.88;8.25;;;14.60;99.90;;;;;;5123940;27;20057;-63
2023/06/10 05:57:14;;;;;;;10.95;7.80;;;14.70;99.90;;;;;;5119987;27;20036;-63
2023/06/10 05:59:41;;;;;;;10.07;7.78;;;14.70;99.90;;;;;;5092741;28;20494;-63
2023/06/10 06:02:07;;;;;;;10.80;7.53;;;14.80;99.90;;;;;;5104156;27;20044;-63
2023/06/10 06:04:34;;;;;;;12.38;8.43;;;14.90;99.90;;;;;;5124189;27;20039;-63
2023/06/10 06:07:01;;;;;;;10.93;7.70;;;14.90;99.90;;;;;;5127875;27;20031;-63
2023/06/10 06:09:28;;;;;;;15.55;7.03;;;15.00;99.90;;;;;;5121557;27;20451;-64
2023/06/10 06:11:54;;;;;;;8.60;6.95;;;15.10;99.90;;;;;;5127158;27;20043;-63
2023/06/10 06:14:21;;;;;;;12.23;7.45;;;15.10;99.90;;;;;;5126354;27;20043;-63
2023/06/10 06:16:48;;;;;;;11.13;6.90;;;15.20;99.90;;;;;;5129335;27;20039;-62
2023/06/10 06:19:15;;;;;;;10.65;7.18;;;15.30;99.90;;;;;;5125820;27;20047;-62
2023/06/10 06:21:42;;;;;;;9.65;7.32;;;15.40;99.90;;;;;;5129056;27;20039;-63
2023/06/10 06:24:09;;;;;;;13.73;7.53;;;15.50;99.90;;;;;;5121410;28;20511;-63
2023/06/10 06:26:36;;;;;;;10.05;7.40;;;15.60;99.90;;;;;;5129220;28;20144;-64
2023/06/10 06:29:02;;;;;;;8.27;6.53;;;15.70;99.90;;;;;;5126868;27;20039;-63
2023/06/10 06:31:30;;;;;;;8.23;6.45;;;15.80;99.90;;;;;;5129186;27;20042;-62
2023/06/10 06:33:57;;;;;;;9.13;5.63;;;16.00;99.90;;;;;;5131007;27;20648;-63
2023/06/10 06:36:23;;;;;;;10.98;7.70;;;16.10;99.90;;;;;;5133802;27;20052;-63
2023/06/10 06:38:50;;;;;;;8.27;7.03;;;16.20;99.90;;;;;;5128949;27;20053;-63
2023/06/10 06:41:18;;;;;;;8.55;6.88;;;16.30;99.90;;;;;;5110791;28;20039;-63
2023/06/10 06:43:45;;;;;;;9.00;6.70;;;16.40;99.90;;;;;;5110191;27;20415;-63
2023/06/10 06:46:29;;;;;;;9.40;6.57;;;16.50;99.90;;;;;;5117809;27;20031;-62
2023/06/10 06:48:56;;;;;;;11.32;6.68;;;16.80;99.90;;;;;;5134701;27;20031;-62
2023/06/10 06:51:23;;;;;;;9.88;6.80;;;16.90;99.90;;;;;;5116165;27;20384;-62
2023/06/10 06:53:51;;;;;;;9.07;6.13;;;17.00;99.90;;;;;;5133121;27;20031;-63
2023/06/10 06:56:17;;;;;;;9.77;7.25;;;17.20;99.90;;;;;;5126285;27;20078;-63
2023/06/10 06:58:44;;;;;;;11.02;6.75;;;17.40;99.90;;;;;;5117079;27;20043;-63
2023/06/10 07:01:11;;;;;;;14.00;6.78;;;17.40;99.90;;;;;;5128340;27;20043;-63
2023/06/10 07:03:38;;;;;;;10.57;7.25;;;17.50;99.90;;;;;;5133061;27;20077;-62
2023/06/10 07:06:04;;;;;;;11.27;6.55;;;17.60;99.90;;;;;;5132019;27;20125;-63
2023/06/10 07:08:31;;;;;;;12.82;7.50;;;17.80;99.90;;;;;;5125713;27;20464;-62
2023/06/10 07:10:58;;;;;;;9.80;7.30;;;17.90;99.90;;;;;;5126288;27;20039;-63
2023/06/10 07:13:25;;;;;;;9.30;6.85;;;17.90;99.90;;;;;;5129406;27;20046;-63
2023/06/10 07:15:51;;;;;;;9.98;7.47;;;18.00;99.90;;;;;;5133501;27;20054;-63
2023/06/10 07:18:18;;;;;;;8.40;6.80;;;18.20;99.90;;;;;;5111020;27;20404;-63
2023/06/10 07:20:45;;;;;;;8.80;6.13;;;18.30;99.90;;;;;;5129417;27;20047;-63
2023/06/10 07:23:12;;;;;;;8.80;6.53;;;18.30;99.90;;;;;;5129474;27;20039;-61
2023/06/10 07:25:40;;;;;;;9.32;6.22;;;18.40;99.90;;;;;;5126948;27;20039;-63
2023/06/10 07:28:07;;;;;;;10.60;6.80;;;18.60;99.90;;;;;;5127024;27;20036;-63
2023/06/10 07:30:34;;;;;;;11.23;7.40;;;18.70;99.90;;;;;;5129104;27;20061;-65
2023/06/10 07:33:02;;;;;;;9.43;6.82;;;18.80;99.90;;;;;;5128661;27;20061;-62
2023/06/10 07:35:29;;;;;;;10.75;6.60;;;18.90;99.90;;;;;;5128926;27;20593;-63
2023/06/10 07:37:55;;;;;;;9.57;6.57;;;19.00;99.90;;;;;;5131224;27;20043;-63
2023/06/10 07:40:23;;;;;;;7.80;6.18;;;19.00;99.90;;;;;;5127064;27;20040;-61
2023/06/10 07:42:50;;;;;;;9.00;6.63;;;19.10;99.90;;;;;;5127830;27;20042;-63
2023/06/10 07:45:17;;;;;;;10.02;6.93;;;19.10;99.90;;;;;;5107490;27;20061;-63
2023/06/10 07:47:44;;;;;;;7.70;6.25;;;19.30;99.90;;;;;;5100980;28;20047;-63
2023/06/10 07:50:11;;;;;;;8.35;6.30;;;19.40;99.90;;;;;;5116150;27;20032;-63
2023/06/10 07:52:38;;;;;;;10.48;6.53;;;19.60;99.90;;;;;;5132845;27;20489;-63
2023/06/10 07:55:05;;;;;;;10.35;7.10;;;19.70;99.90;;;;;;5131190;27;20043;-63
2023/06/10 07:57:36;;;;;;;9.93;6.85;;;19.70;99.90;;;;;;5130302;27;20042;-63
2023/06/10 08:00:05;;;;;;;11.88;7.80;;;19.80;99.90;;;;;;5107754;27;20162;-63
2023/06/10 08:02:38;;;;;;;8.65;6.50;;;19.90;99.90;;;;;;5129679;27;20427;-63
2023/06/10 08:05:05;;;;;;;12.88;7.78;;;19.90;99.90;;;;;;5128913;27;20047;-63
2023/06/10 08:07:33;;;;;;;13.38;8.32;;;19.90;99.90;;;;;;5133771;27;20032;-63
2023/06/10 08:10:00;;;;;;;11.45;8.20;;;20.00;99.90;;;;;;5130071;27;20051;-63
2023/06/10 08:12:27;;;;;;;12.35;8.45;;;20.00;99.90;;;;;;5127328;27;20073;-63
2023/06/10 08:14:54;;;;;;;11.95;8.13;;;20.10;99.90;;;;;;5134086;27;20507;-64
2023/06/10 08:17:21;;;;;;;12.02;8.20;;;20.20;99.90;;;;;;5132725;27;20043;-63
2023/06/10 08:19:48;;;;;;;14.25;8.40;;;20.30;99.90;;;;;;5126946;27;20043;-63
2023/06/10 08:22:15;;;;;;;14.23;7.82;;;20.20;99.90;;;;;;5127852;27;20629;-62
2023/06/10 08:24:41;;;;;;;12.48;9.10;;;20.30;99.90;;;;;;5130338;27;20035;-63
2023/06/10 08:27:08;;;;;;;15.75;10.43;;;20.50;99.90;;;;;;5099333;27;20054;-63
2023/06/10 08:29:35;;;;;;;14.40;8.98;;;20.60;99.90;;;;;;5127520;27;20043;-62
2023/06/10 08:32:03;;;;;;;12.05;8.95;;;20.60;99.90;;;;;;5129297;27;20050;-63
2023/06/10 08:34:29;;;;;;;10.90;8.23;;;20.70;99.90;;;;;;5131746;27;20455;-63
2023/06/10 08:36:56;;;;;;;12.27;8.30;;;20.70;99.90;;;;;;5126464;27;20043;-63
2023/06/10 08:39:23;;;;;;;14.23;8.35;;;20.80;99.90;;;;;;5114720;27;20039;-63
2023/06/10 08:42:14;;;;;;;16.00;8.88;;;20.90;99.90;;;;;;5120862;27;20474;-62
2023/06/10 08:44:42;;;;;;;12.65;9.18;;;21.00;99.90;;;;;;5124600;27;20045;-63
2023/06/10 08:47:15;;;;;;;13.48;9.30;;;21.00;99.90;;;;;;5122750;27;20048;-64
2023/06/10 08:49:47;;;;;;;13.77;9.27;;;21.00;99.90;;;;;;5132830;27;20039;-63
2023/06/10 08:52:16;;;;;;;12.15;8.35;;;21.20;99.90;;;;;;5120854;27;20079;-63
2023/06/10 08:54:54;;;;;;;11.55;8.32;;;21.10;99.90;;;;;;5124732;27;20104;-62
2023/06/10 08:57:22;;;;;;;17.10;8.88;;;21.20;99.90;;;;;;5107808;27;20031;-63
2023/06/10 08:59:49;;;;;;;13.60;7.93;;;21.30;99.90;;;;;;5127897;27;20053;-63
2023/06/10 09:02:19;;;;;;;11.95;8.50;;;21.40;99.90;;;;;;5124230;27;20040;-63
2023/06/10 09:04:47;;;;;;;10.75;8.55;;;21.40;99.90;;;;;;5126276;27;20706;-62
2023/06/10 09:07:16;;;;;;;16.17;10.40;;;21.60;99.90;;;;;;5121186;27;20043;-63
2023/06/10 09:09:44;;;;;;;13.02;9.75;;;21.60;99.90;;;;;;5129235;27;20028;-63
2023/06/10 09:12:13;;;;;;;11.05;9.60;;;21.70;99.90;;;;;;5127359;27;20039;-63
2023/06/10 09:14:44;;;;;;;11.82;9.68;;;21.70;99.90;;;;;;5127327;27;20051;-62
2023/06/10 09:17:11;;;;;;;12.38;8.95;;;21.90;99.90;;;;;;5127499;27;20403;-62
2023/06/10 09:19:40;;;;;;;10.55;8.85;;;22.00;99.90;;;;;;5131269;27;20039;-63
2023/06/10 09:22:06;;;;;;;12.93;9.75;;;22.10;99.90;;;;;;5129191;27;20088;-63
2023/06/10 09:24:34;;;;;;;16.55;10.32;;;22.30;99.90;;;;;;5130290;27;20032;-62
2023/06/10 09:27:07;;;;;;;11.82;9.45;;;22.60;99.90;;;;;;5111986;27;20050;-63
2023/06/10 09:29:54;;;;;;;14.13;9.18;;;22.80;99.90;;;;;;5128594;27;20055;-63
2023/06/10 09:32:22;;;;;;;10.98;9.32;;;23.10;99.90;;;;;;5118229;27;20043;-64
2023/06/10 09:34:50;;;;;;;15.18;9.57;;;23.20;99.90;;;;;;5121687;27;20036;-62
2023/06/10 09:37:22;;;;;;;15.40;10.15;;;23.50;99.90;;;;;;5114846;27;20103;-62
2023/06/10 09:40:04;;;;;;;10.95;8.65;;;23.40;99.90;;;;;;5106449;27;20454;-63
2023/06/10 09:42:36;;;;;;;12.70;9.32;;;23.30;99.90;;;;;;5126230;27;20031;-63
2023/06/10 09:45:04;;;;;;;12.77;9.73;;;23.20;99.90;;;;;;5127278;27;20376;-64
2023/06/10 09:47:31;;;;;;;11.18;9.63;;;23.20;99.90;;;;;;5124965;27;20047;-64
2023/06/10 09:49:58;;;;;;;11.77;9.82;;;23.40;99.90;;;;;;5124337;27;20035;-63
2023/06/10 09:52:27;;;;;;;15.93;11.02;;;23.50;99.90;;;;;;5125580;27;20149;-63
2023/06/10 09:54:59;;;;;;;12.05;9.85;;;23.50;99.90;;;;;;5129065;27;20122;-64
2023/06/10 09:57:32;;;;;;;12.75;9.82;;;23.70;99.90;;;;;;5129266;27;20070;-64
2023/06/10 09:59:59;;;;;;;13.02;9.50;;;23.90;99.90;;;;;;5125224;27;20081;-64
2023/06/10 10:02:26;;;;;;;;;;;24.00;99.90;;;;;;5127062;27;20037;-63
2023/06/10 10:04:53;;;;;;;12.13;9.50;;;24.20;99.90;;;;;;5127824;27;19928;-64
2023/06/10 10:07:20;;;;;;;14.55;9.85;;;24.20;99.90;;;;;;5128930;27;20043;-64
2023/06/10 10:09:47;;;;;;;14.50;9.43;;;24.40;99.90;;;;;;5125912;27;20039;-64
2023/06/10 10:12:15;;;;;;;13.02;9.48;;;24.50;99.90;;;;;;5126267;27;20042;-63
2023/06/10 10:14:49;;;;;;;11.35;9.27;;;24.60;99.90;;;;;;5123990;27;20110;-63
2023/06/10 10:17:18;;;;;;;14.40;9.20;;;24.60;99.90;;;;;;5121869;27;20043;-63
2023/06/10 10:19:53;;;;;;;10.38;9.25;;;24.60;99.90;;;;;;5096787;28;20049;-64
2023/06/10 10:22:29;;;;;;;10.95;9.40;;;24.00;99.90;;;;;;5123571;27;20526;-64
2023/06/10 10:24:58;;;;;;;11.35;9.55;;;23.50;99.90;;;;;;5124719;27;20058;-64
2023/06/10 10:27:33;;;;;;;12.38;9.00;;;23.20;99.90;;;;;;5119141;27;20031;-63
2023/06/10 10:30:04;;;;;;;12.15;9.30;;;22.90;99.90;;;;;;5112968;28;20047;-64
2023/06/10 10:32:38;;;;;;;11.85;8.73;;;22.90;99.90;;;;;;5121574;27;20035;-62
2023/06/10 10:35:15;;;;;;;12.32;8.65;;;22.90;99.90;;;;;;5132032;28;20499;-61
2023/06/10 10:37:42;;;;;;;10.10;8.50;;;22.80;99.90;;;;;;5122385;28;20475;-63
2023/06/10 10:40:10;;;;;;;;;;;22.90;99.90;;;;;;5131371;28;20043;-64
2023/06/10 10:42:38;;;;;;;9.30;7.50;;;22.90;99.90;;;;;;5107751;28;19919;-64
2023/06/10 10:45:07;;;;;;;10.82;7.53;;;22.90;99.90;;;;;;5123777;28;20228;-64
2023/06/10 10:47:37;;;;;;;10.57;7.85;;;22.90;99.90;;;;;;5110563;28;20207;-64
2023/06/10 10:50:14;;;;;;;10.13;8.13;;;22.90;99.90;;;;;;5123760;28;20054;-63
2023/06/10 10:52:58;;;;;;;9.20;7.28;;;22.90;99.90;;;;;;5125182;27;20043;-63
2023/06/10 10:55:26;;;;;;;8.68;6.47;;;22.80;99.90;;;;;;5126994;28;20130;-63
2023/06/10 10:58:04;;;;;;;9.27;6.32;;;22.90;99.90;;;;;;5127754;27;20036;-64
2023/06/10 11:00:51;;;;;;;11.30;6.63;;;23.00;99.90;;;;;;5124860;28;20120;-64
2023/06/10 11:03:18;;;;;;;8.57;6.90;;;23.00;99.90;;;;;;5124362;28;20100;-64
2023/06/10 11:05:48;;;;;;;8.00;6.68;;;23.00;99.90;;;;;;5126200;27;20078;-62
2023/06/10 11:08:30;;;;;;;6.50;5.78;;;23.00;99.90;;;;;;5113081;28;20479;-64
2023/06/10 11:10:58;;;;;;;8.02;6.22;;;23.00;99.90;;;;;;5123658;27;20039;-63
2023/06/10 11:13:26;;;;;;;7.05;6.35;;;23.00;99.90;;;;;;5124474;27;20039;-62
2023/06/10 11:15:57;;;;;;;9.75;6.45;;;23.10;99.90;;;;;;5131570;27;20058;-62
2023/06/10 11:18:26;;;;;;;7.50;6.47;;;23.00;99.90;;;;;;5130562;27;20043;-62
2023/06/10 11:20:58;;;;;;;9.18;7.00;;;22.90;99.90;;;;;;5127898;27;20068;-63
2023/06/10 11:23:28;;;;;;;7.60;6.80;;;22.90;99.90;;;;;;5131757;27;20088;-62
2023/06/10 11:26:13;;;;;;;8.10;6.90;;;22.70;99.90;;;;;;5128727;27;20046;-62
2023/06/10 11:28:42;;;;;;;12.02;7.53;;;22.70;99.90;;;;;;5131729;27;20051;-61
2023/06/10 11:31:19;;;;;;;13.23;7.32;;;22.70;99.90;;;;;;5132156;27;20039;-62
2023/06/10 11:34:07;;;;;;;10.82;7.07;;;22.80;99.90;;;;;;5114398;27;20043;-62
2023/06/10 11:36:37;;;;;;;7.90;6.30;;;22.80;99.90;;;;;;5120191;27;20051;-62
2023/06/10 11:39:05;;;;;;;11.82;6.63;;;22.80;99.90;;;;;;5133363;27;20035;-62
2023/06/10 11:41:34;;;;;;;7.95;6.60;;;22.90;99.90;;;;;;5132303;27;20035;-62
2023/06/10 11:44:07;;;;;;;9.05;6.65;;;22.80;99.90;;;;;;5109432;28;20035;-62
2023/06/10 11:46:35;;;;;;;8.50;6.60;;;22.80;99.90;;;;;;5128515;27;20114;-63
2023/06/10 11:49:02;;;;;;;12.30;7.07;;;22.90;99.90;;;;;;5113490;27;20131;-63
2023/06/10 11:51:32;;;;;;;11.90;6.57;;;23.10;99.90;;;;;;5132296;27;20039;-62
2023/06/10 11:53:59;;;;;;;9.18;6.70;;;23.20;99.90;;;;;;5130661;27;20133;-63
2023/06/10 11:56:27;;;;;;;10.23;6.90;;;23.40;99.90;;;;;;5129825;27;20047;-63
2023/06/10 11:59:07;;;;;;;7.18;6.40;;;23.80;99.90;;;;;;5130107;27;20487;-63
2023/06/10 12:01:36;;;;;;;9.77;6.78;;;24.50;99.90;;;;;;5130759;27;20039;-63
2023/06/10 12:04:08;;;;;;;7.50;6.18;;;24.90;99.90;;;;;;5128165;27;20046;-63
2023/06/10 12:06:48;;;;;;;7.22;6.38;;;25.40;99.90;;;;;;5131300;27;20028;-63
2023/06/10 12:09:26;;;;;;;8.27;6.72;;;25.80;99.90;;;;;;5134281;27;20096;-63
2023/06/10 12:11:59;;;;;;;9.63;6.65;;;26.20;99.90;;;;;;5133762;27;20088;-63
2023/06/10 12:14:58;;;;;;;7.90;6.63;;;26.40;99.90;;;;;;5126890;27;20131;-63
2023/06/10 12:17:33;;;;;;;9.25;6.55;;;26.40;99.90;;;;;;5128118;27;20042;-63
2023/06/10 12:20:03;;;;;;;9.15;6.35;;;26.20;99.90;;;;;;5133090;27;20491;-63
2023/06/10 12:22:41;;;;;;;9.25;6.15;;;26.40;99.90;;;;;;5131202;27;20047;-62
2023/06/10 12:25:09;;;;;;;8.70;6.72;;;26.70;99.90;;;;;;5128273;27;20031;-63
2023/06/10 12:27:40;;;;;;;7.30;6.22;;;26.80;99.90;;;;;;5131319;27;20092;-63
2023/06/10 12:30:07;;;;;;;10.02;6.45;;;26.40;99.90;;;;;;5131171;27;20073;-61
2023/06/10 12:32:45;;;;;;;6.80;6.10;;;25.50;99.90;;;;;;5110361;27;20035;-63
2023/06/10 12:35:14;;;;;;;7.97;6.15;;;24.60;99.90;;;;;;5132802;27;20118;-62
2023/06/10 12:37:41;;;;;;;10.57;6.38;;;24.20;99.90;;;;;;5116821;27;20036;-63
2023/06/10 12:40:10;;;;;;;11.00;6.57;;;23.60;99.90;;;;;;5124720;27;20039;-63
2023/06/10 12:42:38;;;;;;;6.85;6.18;;;23.20;99.90;;;;;;5132538;27;20062;-63
2023/06/10 12:45:07;;;;;;;7.40;6.50;;;22.90;99.90;;;;;;5129247;27;20566;-63
2023/06/10 12:47:38;;;;;;;7.53;6.15;;;22.80;99.90;;;;;;5126057;27;20080;-63
2023/06/10 12:50:06;;;;;;;7.43;5.40;;;22.70;99.90;;;;;;5132991;27;20400;-63
2023/06/10 12:52:32;;;;;;;8.25;6.10;;;22.80;99.90;;;;;;5130057;27;20348;-63
2023/06/10 12:55:00;;;;;;;10.05;7.25;;;22.80;99.90;;;;;;5130540;27;20031;-62